Time;durP1;ratioP1;P1;durP2;ratioP2;P2;SDS_P1;SDS_P2;PMS_P1;PMS_P2;Temp;Humidity;BMP_temperature;BMP_pressure;BME280_temperature;BME280_humidity;BME280_pressure;Samples;Min_cycle;Max_cycle;Signal;HPM_P1;HPM_P2
2022/04/12 00:01:54;;;;;;;100.50;44.27;;;;;;;0.72;77.09;94661.44;1704593;83;21012;-53
2022/04/12 00:04:21;;;;;;;89.67;41.10;;;;;;;0.71;77.05;94660.45;1702163;83;20977;-52
2022/04/12 00:06:48;;;;;;;80.12;39.00;;;;;;;0.67;76.89;94661.83;1682312;84;21016;-52
2022/04/12 00:09:17;;;;;;;80.75;38.17;;;;;;;0.61;77.06;94668.00;1702266;84;21021;-53
2022/04/12 00:11:44;;;;;;;44.25;24.35;;;;;;;0.58;77.12;94662.02;1702272;84;21070;-51
2022/04/12 00:14:13;;;;;;;58.30;27.95;;;;;;;0.56;76.81;94660.28;1702274;84;21616;-52
2022/04/12 00:16:39;;;;;;;60.50;30.90;;;;;;;0.48;77.12;94651.37;1702508;84;20985;-53
2022/04/12 00:19:07;;;;;;;53.40;27.35;;;;;;;0.50;76.98;94665.30;1702313;84;21023;-54
2022/04/12 00:21:35;;;;;;;53.60;25.90;;;;;;;0.53;77.10;94663.16;1702197;84;21560;-53
2022/04/12 00:24:06;;;;;;;40.40;21.85;;;;;;;0.56;76.92;94668.39;1707111;83;20967;-54
2022/04/12 00:26:34;;;;;;;27.48;16.80;;;;;;;0.54;76.87;94660.66;1702355;84;21040;-52
2022/04/12 00:29:01;;;;;;;33.65;17.85;;;;;;;0.54;76.77;94663.36;1702335;84;20972;-51
2022/04/12 00:31:30;;;;;;;27.58;16.77;;;;;;;0.53;76.86;94656.40;1698517;84;21122;-54
2022/04/12 00:33:57;;;;;;;26.37;16.15;;;;;;;0.57;77.27;94655.81;1703505;84;21308;-52
2022/04/12 00:36:24;;;;;;;20.00;13.98;;;;;;;0.57;76.79;94659.88;1703562;84;21045;-53
2022/04/12 00:38:51;;;;;;;19.90;12.93;;;;;;;0.49;76.61;94661.04;1703609;84;21029;-53
2022/04/12 00:41:18;;;;;;;40.12;21.40;;;;;;;0.45;76.73;94656.18;1703671;84;21021;-54
2022/04/12 00:43:45;;;;;;;44.40;24.45;;;;;;;0.49;76.96;94654.84;1703825;84;21533;-53
2022/04/12 00:46:11;;;;;;;45.35;26.68;;;;;;;0.43;76.67;94670.67;1703616;84;21158;-50
2022/04/12 00:48:38;;;;;;;53.20;28.32;;;;;;;0.29;76.72;94665.83;1703681;84;21005;-53
2022/04/12 00:51:05;;;;;;;52.85;27.42;;;;;;;0.20;77.26;94672.20;1681541;84;21077;-53
2022/04/12 00:53:32;;;;;;;54.77;28.90;;;;;;;0.19;77.75;94664.65;1637017;84;21030;-53
2022/04/12 00:55:58;;;;;;;50.80;26.52;;;;;;;0.20;77.99;94672.96;1703824;84;21585;-53
2022/04/12 00:58:25;;;;;;;47.70;26.20;;;;;;;0.25;78.35;94680.69;1703627;84;21254;-53
2022/04/12 01:00:53;;;;;;;45.30;21.68;;;;;;;0.33;78.19;94675.51;1703742;84;21576;-52
2022/04/12 01:03:21;;;;;;;34.35;21.05;;;;;;;0.37;78.13;94676.88;1684949;84;20987;-53
2022/04/12 01:05:49;;;;;;;32.48;21.00;;;;;;;0.35;77.56;94669.12;1683422;85;21463;-51
2022/04/12 01:08:17;;;;;;;37.23;21.70;;;;;;;0.30;77.43;94673.57;1683222;85;21577;-52
2022/04/12 01:10:46;;;;;;;37.73;22.02;;;;;;;0.36;77.83;94676.66;1683210;85;21006;-53
2022/04/12 01:13:13;;;;;;;39.88;23.35;;;;;;;0.38;77.55;94673.77;1683135;85;20978;-53
2022/04/12 01:15:42;;;;;;;44.80;26.60;;;;;;;0.45;77.92;94673.77;1683292;85;21038;-52
2022/04/12 01:18:11;;;;;;;38.95;21.68;;;;;;;0.57;77.87;94666.64;1683317;85;20987;-52
2022/04/12 01:20:37;;;;;;;47.10;25.30;;;;;;;0.67;77.50;94662.39;1683245;85;21034;-52
2022/04/12 01:23:27;;;;;;;61.13;30.82;;;;;;;0.68;77.15;94660.67;1683231;85;21261;-52
2022/04/12 01:25:54;;;;;;;57.60;30.65;;;;;;;0.61;76.92;94657.18;1683242;85;21541;-53
2022/04/12 01:28:21;;;;;;;63.75;33.40;;;;;;;0.54;76.89;94662.00;1683509;85;21431;-53
2022/04/12 01:30:54;;;;;;;68.80;31.82;;;;;;;0.46;76.68;94659.11;1683290;85;20975;-53
2022/04/12 01:33:21;;;;;;;68.92;31.95;;;;;;;0.40;76.90;94667.98;1694067;84;21114;-54
2022/04/12 01:35:50;;;;;;;82.97;39.35;;;;;;;0.40;77.14;94666.63;1688436;83;21004;-52
2022/04/12 01:38:18;;;;;;;73.80;34.75;;;;;;;0.37;77.13;94660.64;1688432;84;21015;-53
2022/04/12 01:40:44;;;;;;;73.67;37.85;;;;;;;0.37;77.45;94661.41;1688419;85;21046;-52
2022/04/12 01:43:13;;;;;;;120.22;60.25;;;;;;;0.46;77.80;94660.46;1688764;85;20970;-52
2022/04/12 01:45:42;;;;;;;106.78;51.83;;;;;;;0.53;77.32;94652.34;1670619;83;20987;-53
2022/04/12 01:48:09;;;;;;;123.02;59.60;;;;;;;0.55;77.40;94664.90;1688404;83;21349;-52
2022/04/12 01:50:36;;;;;;;103.30;50.43;;;;;;;0.59;77.05;94658.91;1688448;85;21494;-53
2022/04/12 01:53:04;;;;;;;80.22;40.30;;;;;;;0.57;76.94;94663.94;1688406;84;21047;-53
2022/04/12 01:55:31;;;;;;;75.20;38.80;;;;;;;0.56;76.83;94660.28;1688287;84;21029;-53
2022/04/12 01:57:59;;;;;;;75.05;37.90;;;;;;;0.57;77.03;94666.64;1693964;84;20971;-53
2022/04/12 02:00:26;;;;;;;64.27;34.18;;;;;;;0.64;77.13;94672.08;1671951;84;21234;-52
2022/04/12 02:02:53;;;;;;;65.10;30.70;;;;;;;0.72;76.99;94673.62;1692421;83;21029;-52
2022/04/12 02:05:20;;;;;;;70.62;31.40;;;;;;;0.76;76.82;94667.61;1695674;84;21451;-53
2022/04/12 02:07:47;;;;;;;94.67;46.25;;;;;;;0.84;77.03;94666.47;1707786;83;21482;-53
2022/04/12 02:10:15;;;;;;;89.58;42.67;;;;;;;0.95;76.72;94669.93;1695603;84;21059;-53
2022/04/12 02:12:42;;;;;;;67.25;37.40;;;;;;;0.91;76.16;94671.88;1707101;84;21253;-53
2022/04/12 02:15:10;;;;;;;56.53;31.73;;;;;;;0.81;76.13;94667.22;1707283;83;21017;-52
2022/04/12 02:17:37;;;;;;;55.10;30.92;;;;;;;0.68;76.43;94660.67;1707218;82;21009;-53
2022/04/12 02:20:06;;;;;;;62.85;33.33;;;;;;;0.65;76.70;94660.66;1695457;84;21071;-53
2022/04/12 02:22:35;;;;;;;80.07;38.98;;;;;;;0.69;77.20;94662.77;1707149;84;21073;-50
2022/04/12 02:25:02;;;;;;;89.40;43.83;;;;;;;0.77;77.13;94662.98;1695518;84;21147;-53
2022/04/12 02:27:29;;;;;;;110.97;56.58;;;;;;;0.86;77.21;94659.30;1706987;84;21001;-51
2022/04/12 02:29:56;;;;;;;132.90;68.60;;;;;;;0.93;76.71;94666.84;1695642;83;21031;-52
2022/04/12 02:32:23;;;;;;;138.82;73.47;;;;;;;0.94;76.53;94664.33;1706978;83;21025;-53
2022/04/12 02:34:51;;;;;;;129.53;69.80;;;;;;;0.94;76.20;94665.68;1695593;84;20988;-52
2022/04/12 02:37:18;;;;;;;116.73;63.38;;;;;;;0.95;76.25;94675.34;1707080;84;21259;-53
2022/04/12 02:39:45;;;;;;;89.37;48.90;;;;;;;0.97;76.17;94661.44;1725966;83;21045;-54
2022/04/12 02:42:12;;;;;;;76.62;41.45;;;;;;;0.99;75.92;94655.05;1726081;83;21399;-54
2022/04/12 02:44:38;;;;;;;76.15;39.55;;;;;;;0.93;75.86;94657.36;1726065;83;21041;-52
2022/04/12 02:47:06;;;;;;;62.40;34.53;;;;;;;0.90;75.76;94662.20;1726203;82;21005;-54
2022/04/12 02:49:34;;;;;;;64.40;35.23;;;;;;;0.90;75.83;94662.77;1726260;82;21509;-53
2022/04/12 02:52:01;;;;;;;63.68;32.60;;;;;;;0.86;75.72;94664.14;1726191;83;21458;-53
2022/04/12 02:54:29;;;;;;;62.17;32.80;;;;;;;0.87;75.99;94661.62;1707312;83;20965;-54
2022/04/12 02:56:57;;;;;;;59.48;32.73;;;;;;;0.89;75.80;94668.78;1726082;82;21065;-55
2022/04/12 02:59:24;;;;;;;64.53;34.67;;;;;;;0.91;75.92;94665.67;1726237;82;21548;-54
2022/04/12 03:01:52;;;;;;;64.10;34.50;;;;;;;0.89;75.70;94662.58;1684338;83;21445;-52
2022/04/12 03:04:19;;;;;;;61.02;32.67;;;;;;;0.86;75.79;94665.50;1725555;83;21049;-54
2022/04/12 03:06:46;;;;;;;59.08;32.85;;;;;;;0.91;76.24;94665.11;1725594;81;20989;-54
2022/04/12 03:09:14;;;;;;;61.63;32.58;;;;;;;0.95;75.67;94671.28;1725585;82;21132;-53
2022/04/12 03:11:42;;;;;;;61.75;33.05;;;;;;;0.97;75.93;94674.38;1725636;83;20966;-52
2022/04/12 03:14:10;;;;;;;55.40;29.92;;;;;;;1.00;75.54;94681.72;1725629;83;20955;-52
2022/04/12 03:16:37;;;;;;;55.73;30.95;;;;;;;0.99;75.24;94683.48;1725587;83;21061;-53
2022/04/12 03:19:05;;;;;;;51.23;27.67;;;;;;;0.95;75.30;94678.05;1725941;83;20993;-54
2022/04/12 03:21:34;;;;;;;53.85;29.20;;;;;;;0.99;75.39;94679.42;1725552;81;21608;-53
2022/04/12 03:24:01;;;;;;;50.48;25.88;;;;;;;0.98;75.01;94684.64;1705132;83;21009;-52
2022/04/12 03:26:28;;;;;;;46.68;25.00;;;;;;;0.94;75.03;94688.70;1725656;83;21234;-52
2022/04/12 03:28:55;;;;;;;48.87;24.85;;;;;;;0.91;74.86;94694.10;1725522;83;21069;-52
2022/04/12 03:31:22;;;;;;;39.92;23.07;;;;;;;0.88;75.02;94698.94;1725492;83;20965;-51
2022/04/12 03:33:49;;;;;;;34.20;20.37;;;;;;;0.90;75.28;94691.98;1729616;83;21014;-54
2022/04/12 03:36:17;;;;;;;29.10;17.75;;;;;;;0.97;75.29;94691.22;1721176;83;21084;-52
2022/04/12 03:38:49;;;;;;;61.63;31.68;;;;;;;1.00;75.19;94695.27;1737199;82;21170;-53
2022/04/12 03:41:22;;;;;;;;;;;;;;;0.94;74.98;94692.00;1723869;83;21538;-53
2022/04/12 03:43:49;;;;;;;65.37;32.10;;;;;;;0.85;75.03;94695.09;1730073;81;20146;-51
2022/04/12 03:46:17;;;;;;;64.62;35.38;;;;;;;0.72;75.21;94689.86;1703712;83;21086;-53
2022/04/12 03:48:45;;;;;;;81.60;40.70;;;;;;;0.67;75.70;94696.23;1721075;83;21066;-52
2022/04/12 03:51:13;;;;;;;87.25;41.75;;;;;;;0.75;76.21;94697.20;1737326;82;20918;-53
2022/04/12 03:53:41;;;;;;;80.80;40.58;;;;;;;0.85;76.32;94695.09;1684624;84;20973;-53
2022/04/12 03:56:08;;;;;;;95.95;44.73;;;;;;;0.87;75.91;94699.53;1721086;83;21020;-52
2022/04/12 03:58:38;;;;;;;82.80;41.33;;;;;;;0.81;75.87;94700.30;1714305;82;21085;-51
2022/04/12 04:01:05;;;;;;;84.22;41.37;;;;;;;0.83;76.35;94704.19;1708495;84;21024;-51
2022/04/12 04:03:32;;;;;;;83.00;42.90;;;;;;;0.93;76.61;94708.05;1702103;82;22050;-52
2022/04/12 04:05:59;;;;;;;69.77;36.58;;;;;;;1.02;76.30;94711.14;1706138;84;20949;-52
2022/04/12 04:08:27;;;;;;;68.20;36.85;;;;;;;1.03;76.19;94714.83;1666027;85;21585;-52
2022/04/12 04:10:55;;;;;;;77.42;39.42;;;;;;;1.02;76.34;94717.34;1660931;86;21082;-52
2022/04/12 04:13:24;;;;;;;80.15;39.35;;;;;;;1.07;76.48;94714.23;1648974;87;21522;-52
2022/04/12 04:15:53;;;;;;;68.57;37.98;;;;;;;1.16;76.44;94721.38;1678345;85;21027;-52
2022/04/12 04:18:21;;;;;;;77.80;42.08;;;;;;;1.20;76.17;94723.53;1670384;86;21005;-53
2022/04/12 04:20:49;;;;;;;79.27;42.03;;;;;;;1.19;76.02;94728.75;1670516;86;21030;-54
2022/04/12 04:23:16;;;;;;;75.28;39.53;;;;;;;1.22;76.56;94727.98;1671031;86;21081;-51
2022/04/12 04:25:44;;;;;;;68.30;35.17;;;;;;;1.34;76.41;94724.84;1674493;85;21536;-53
2022/04/12 04:28:13;;;;;;;74.20;38.85;;;;;;;1.39;75.95;94729.90;1670968;84;20941;-55
2022/04/12 04:30:44;;;;;;;74.65;41.90;;;;;;;1.43;75.62;94725.80;1668061;85;21105;-55
2022/04/12 04:33:10;;;;;;;81.17;42.98;;;;;;;1.47;75.75;94727.36;1668592;84;21060;-52
2022/04/12 04:35:38;;;;;;;77.67;41.02;;;;;;;1.49;75.56;94734.52;1744239;81;21038;-54
2022/04/12 04:38:06;;;;;;;85.85;48.13;;;;;;;1.43;75.45;94732.02;1721989;83;21070;-52
2022/04/12 04:40:33;;;;;;;69.87;40.83;;;;;;;1.40;75.39;94726.59;1705280;83;21245;-52
2022/04/12 04:42:59;;;;;;;74.45;44.33;;;;;;;1.34;75.35;94742.46;1724383;81;22281;-53
2022/04/12 04:45:26;;;;;;;78.60;46.55;;;;;;;1.22;75.47;94736.10;1704008;83;21611;-56
2022/04/12 04:47:58;;;;;;;77.67;44.55;;;;;;;1.17;75.91;94736.47;1718215;81;21002;-56
2022/04/12 04:50:29;;;;;;;76.30;41.42;;;;;;;1.21;76.00;94733.77;1700944;83;21074;-52
2022/04/12 04:52:57;;;;;;;67.42;40.45;;;;;;;1.23;76.02;94728.73;1724268;83;21146;-52
2022/04/12 04:55:24;;;;;;;73.92;40.17;;;;;;;1.18;76.01;94732.59;1704040;83;21065;-56
2022/04/12 04:57:56;;;;;;;68.33;38.73;;;;;;;1.12;76.26;94730.69;1724904;82;21463;-55
2022/04/12 05:00:25;;;;;;;65.57;37.63;;;;;;;1.17;76.59;94731.05;1725285;83;21043;-56
2022/04/12 05:02:53;;;;;;;67.53;39.03;;;;;;;1.21;76.15;94731.84;1729694;81;21188;-55
2022/04/12 05:05:21;;;;;;;72.50;42.83;;;;;;;1.22;76.37;94733.39;1749361;80;21225;-53
2022/04/12 05:07:50;;;;;;;87.35;50.73;;;;;;;1.36;76.62;94738.02;1747371;80;21017;-53
2022/04/12 05:10:22;;;;;;;164.60;88.42;;;;;;;1.50;76.42;94741.48;1771220;81;20996;-52
2022/04/12 05:12:49;;;;;;;126.45;67.75;;;;;;;1.63;76.08;94739.12;1770840;81;20979;-54
2022/04/12 05:15:18;;;;;;;113.17;58.87;;;;;;;1.65;75.80;94738.19;1759356;81;21032;-52
2022/04/12 05:17:51;;;;;;;84.03;47.80;;;;;;;1.67;75.73;94743.39;1745320;81;21225;-53
2022/04/12 05:20:21;;;;;;;51.60;29.72;;;;;;;1.76;75.59;94738.34;1744518;81;21615;-53
2022/04/12 05:22:50;;;;;;;86.00;40.45;;;;;;;1.79;75.11;94736.97;1741356;82;21475;-52
2022/04/12 05:25:17;;;;;;;91.28;41.92;;;;;;;1.79;74.86;94735.61;1716815;82;21011;-52
2022/04/12 05:27:44;;;;;;;76.95;34.10;;;;;;;1.82;75.08;94732.70;1758906;81;21095;-53
2022/04/12 05:30:13;;;;;;;99.97;50.23;;;;;;;1.85;75.13;94735.42;1758598;81;21274;-52
2022/04/12 05:32:39;;;;;;;114.57;63.17;;;;;;;1.98;75.41;94738.47;1738180;82;21417;-53
2022/04/12 05:35:07;;;;;;;92.30;50.08;;;;;;;2.16;75.65;94744.02;1738785;82;21070;-52
2022/04/12 05:37:47;;;;;;;104.23;56.77;;;;;;;2.32;74.86;94740.27;1740417;81;21473;-54
2022/04/12 05:40:15;;;;;;;97.62;53.28;;;;;;;2.45;74.91;94742.73;1770046;81;21035;-55
2022/04/12 05:42:42;;;;;;;87.75;48.30;;;;;;;2.61;75.03;94733.55;1752672;81;21108;-55
2022/04/12 05:45:10;;;;;;;81.25;42.17;;;;;;;2.79;74.49;94740.21;1718256;81;21488;-54
2022/04/12 05:47:52;;;;;;;44.58;22.87;;;;;;;2.85;73.90;94729.14;1716958;81;21068;-54
2022/04/12 05:50:24;;;;;;;35.88;20.25;;;;;;;2.86;73.24;94727.97;1741810;80;21140;-52
2022/04/12 05:52:52;;;;;;;32.50;21.25;;;;;;;2.88;72.41;94731.05;1742096;80;21447;-53
2022/04/12 05:55:22;;;;;;;29.52;21.02;;;;;;;2.92;71.71;94727.72;1728438;80;21111;-53
2022/04/12 05:57:59;;;;;;;26.42;17.52;;;;;;;2.99;71.22;94719.51;1745331;80;21044;-53
2022/04/12 06:00:31;;;;;;;30.68;18.07;;;;;;;3.06;71.06;94733.06;1739623;81;21051;-56
2022/04/12 06:02:58;;;;;;;26.07;16.45;;;;;;;3.21;71.03;94724.99;1714315;81;21099;-52
2022/04/12 06:05:29;;;;;;;28.52;18.67;;;;;;;3.35;70.67;94740.59;1738006;81;21040;-54
2022/04/12 06:07:59;;;;;;;25.52;17.85;;;;;;;3.50;70.52;94745.50;1738304;81;21029;-52
2022/04/12 06:10:27;;;;;;;39.92;22.58;;;;;;;3.68;70.31;94743.39;1737805;81;21072;-54
2022/04/12 06:12:54;;;;;;;40.63;29.25;;;;;;;3.77;69.71;94749.14;1729925;81;20985;-54
2022/04/12 06:15:21;;;;;;;34.67;27.07;;;;;;;3.90;68.80;94746.08;1737987;81;21500;-60
2022/04/12 06:17:50;;;;;;;19.00;14.55;;;;;;;4.08;67.76;94750.75;1732693;81;21081;-55
2022/04/12 06:20:19;;;;;;;25.45;15.58;;;;;;;4.20;66.83;94740.70;1741237;81;21160;-60
2022/04/12 06:22:45;;;;;;;18.27;11.22;;;;;;;4.20;66.54;94743.43;1733430;81;21071;-54
2022/04/12 06:25:14;;;;;;;21.60;13.75;;;;;;;4.18;67.08;94747.15;1738220;81;21100;-55
2022/04/12 06:27:43;;;;;;;27.05;14.53;;;;;;;4.18;67.31;94730.03;1735708;81;21037;-56
2022/04/12 06:30:13;;;;;;;25.52;19.45;;;;;;;4.28;67.62;94733.23;1729828;81;21682;-55
2022/04/12 06:32:42;;;;;;;27.70;17.12;;;;;;;4.46;67.76;94734.55;1736867;81;20997;-55
2022/04/12 06:35:10;;;;;;;19.57;13.00;;;;;;;4.64;67.23;94745.98;1727850;81;21606;-57
2022/04/12 06:37:40;;;;;;;26.02;17.23;;;;;;;4.72;66.16;94741.22;1730903;81;21049;-55
2022/04/12 06:40:09;;;;;;;24.18;17.02;;;;;;;4.80;65.58;94744.80;1726924;81;21079;-54
2022/04/12 06:42:37;;;;;;;16.37;12.13;;;;;;;4.89;64.64;94751.90;1736149;81;21509;-54
2022/04/12 06:45:05;;;;;;;21.05;16.50;;;;;;;4.88;63.76;94746.27;1736120;81;21159;-53
2022/04/12 06:47:33;;;;;;;22.95;14.93;;;;;;;4.89;63.92;94744.30;1735033;81;21550;-55
2022/04/12 06:50:00;;;;;;;19.20;12.95;;;;;;;4.88;63.34;94750.36;1732345;81;21559;-53
2022/04/12 06:52:27;;;;;;;18.73;14.25;;;;;;;4.75;63.51;94753.45;1732416;81;21009;-55
2022/04/12 06:54:55;;;;;;;18.12;14.13;;;;;;;4.67;63.67;94743.84;1691734;82;21059;-55
2022/04/12 06:57:21;;;;;;;19.73;12.68;;;;;;;4.60;63.63;94750.72;1726851;81;21222;-55
2022/04/12 06:59:48;;;;;;;23.30;14.65;;;;;;;4.54;63.39;94747.48;1700616;82;21520;-54
2022/04/12 07:02:16;;;;;;;22.55;15.53;;;;;;;4.50;64.11;94750.86;1709549;81;21036;-55
2022/04/12 07:04:43;;;;;;;20.62;13.15;;;;;;;4.49;64.05;94748.73;1731322;81;21063;-53
2022/04/12 07:07:10;;;;;;;15.25;12.13;;;;;;;4.51;63.78;94743.65;1733335;81;21026;-53
2022/04/12 07:09:40;;;;;;;11.00;8.90;;;;;;;4.58;63.69;94757.17;1727133;81;21756;-55
2022/04/12 07:12:08;;;;;;;16.00;9.38;;;;;;;4.80;62.79;94754.34;1722554;81;21047;-53
2022/04/12 07:14:35;;;;;;;17.37;10.00;;;;;;;5.07;62.09;94751.05;1730980;81;21632;-53
2022/04/12 07:17:05;;;;;;;13.30;7.92;;;;;;;5.30;61.46;94745.64;1705707;81;21075;-55
2022/04/12 07:19:33;;;;;;;12.45;7.90;;;;;;;5.50;61.06;94741.81;1731305;81;21516;-54
2022/04/12 07:22:00;;;;;;;53.95;33.30;;;;;;;5.77;60.15;94741.15;1721145;81;21121;-55
2022/04/12 07:24:28;;;;;;;19.90;14.23;;;;;;;6.10;59.63;94743.50;1719157;81;21039;-57
2022/04/12 07:26:56;;;;;;;16.65;9.25;;;;;;;6.34;57.57;94747.75;1730894;81;21532;-53
2022/04/12 07:29:23;;;;;;;31.45;21.25;;;;;;;6.41;56.98;94749.75;1724376;81;21137;-56
2022/04/12 07:31:54;;;;;;;8.50;6.80;;;;;;;6.42;57.02;94749.14;1724792;81;21567;-53
2022/04/12 07:34:21;;;;;;;8.88;6.20;;;;;;;6.42;54.91;94760.07;1719266;81;21079;-51
2022/04/12 07:36:49;;;;;;;6.72;6.12;;;;;;;6.41;55.51;94757.95;1727427;80;21519;-54
2022/04/12 07:39:17;;;;;;;10.43;7.50;;;;;;;6.43;55.07;94762.40;1691946;82;21024;-53
2022/04/12 07:41:45;;;;;;;13.75;7.35;;;;;;;6.45;54.83;94751.81;1727790;82;21562;-54
2022/04/12 07:44:15;;;;;;;14.05;7.50;;;;;;;6.49;55.41;94760.70;1699426;82;21103;-53
2022/04/12 07:46:43;;;;;;;7.50;6.17;;;;;;;6.51;54.87;94762.42;1696776;83;21220;-53
2022/04/12 07:49:10;;;;;;;21.20;13.18;;;;;;;6.48;54.22;94760.53;1686118;83;21089;-55
2022/04/12 07:51:37;;;;;;;11.30;9.93;;;;;;;6.52;54.15;94761.23;1658498;85;21436;-59
2022/04/12 07:54:06;;;;;;;11.50;8.58;;;;;;;6.62;55.04;94767.67;1682049;82;21799;-54
2022/04/12 07:56:33;;;;;;;10.08;7.55;;;;;;;6.80;54.39;94774.34;1679594;84;21564;-55
2022/04/12 07:59:03;;;;;;;8.83;5.30;;;;;;;6.95;55.13;94777.54;1681777;83;20991;-56
2022/04/12 08:01:30;;;;;;;20.48;11.25;;;;;;;7.08;53.05;94770.41;1702863;82;21049;-57
2022/04/12 08:03:57;;;;;;;9.28;7.67;;;;;;;7.15;52.70;94783.16;1687295;83;21128;-57
2022/04/12 08:06:25;;;;;;;17.37;12.68;;;;;;;7.15;52.41;94775.71;1669425;85;20988;-56
2022/04/12 08:08:52;;;;;;;12.63;9.33;;;;;;;7.19;52.54;94773.66;1641387;85;21100;-55
2022/04/12 08:11:20;;;;;;;13.43;8.53;;;;;;;7.29;50.87;94781.46;1696367;82;21850;-55
2022/04/12 08:13:49;;;;;;;20.80;12.28;;;;;;;7.28;51.02;94779.34;1679142;84;21556;-54
2022/04/12 08:16:16;;;;;;;60.10;11.40;;;;;;;7.34;51.84;94770.79;1667096;84;21092;-56
2022/04/12 08:18:44;;;;;;;14.00;10.32;;;;;;;7.57;51.56;94762.45;1694188;83;21062;-54
2022/04/12 08:21:11;;;;;;;8.63;6.70;;;;;;;7.78;52.09;94767.41;1666271;83;21045;-54
2022/04/12 08:23:39;;;;;;;14.73;6.12;;;;;;;7.92;50.30;94769.77;1693753;83;21188;-54
2022/04/12 08:26:07;;;;;;;9.30;5.87;;;;;;;7.87;49.71;94768.18;1701904;82;21077;-57
2022/04/12 08:28:35;;;;;;;8.00;6.62;;;;;;;7.77;49.32;94771.34;1655412;84;21031;-55
2022/04/12 08:31:02;;;;;;;20.70;8.75;;;;;;;7.74;50.39;94767.31;1686381;83;21981;-54
2022/04/12 08:33:30;;;;;;;9.73;6.20;;;;;;;7.79;50.66;94775.80;1692352;83;21660;-57
2022/04/12 08:35:57;;;;;;;6.95;5.60;;;;;;;7.81;49.55;94770.66;1691309;83;21150;-57
2022/04/12 08:38:25;;;;;;;8.80;5.85;;;;;;;7.80;48.84;94775.97;1669789;84;21086;-53
2022/04/12 08:40:54;;;;;;;8.00;6.67;;;;;;;7.94;48.71;94774.25;1703863;82;21126;-54
2022/04/12 08:43:21;;;;;;;11.03;5.70;;;;;;;8.11;47.77;94764.79;1685574;83;21045;-56
2022/04/12 08:45:49;;;;;;;6.55;5.10;;;;;;;8.33;47.52;94758.97;1730305;81;21068;-52
2022/04/12 08:48:16;;;;;;;6.70;5.10;;;;;;;8.48;48.28;94764.25;1706967;81;21267;-54
2022/04/12 08:50:43;;;;;;;5.33;4.83;;;;;;;8.65;47.95;94762.97;1694947;83;21516;-56
2022/04/12 08:53:10;;;;;;;4.53;4.15;;;;;;;8.77;47.90;94767.73;1668497;84;21591;-54
2022/04/12 08:55:39;;;;;;;5.05;4.42;;;;;;;8.86;47.70;94769.84;1645900;84;21035;-56
2022/04/12 08:58:06;;;;;;;8.60;6.25;;;;;;;8.84;47.14;94779.87;1690424;82;21041;-56
2022/04/12 09:00:34;;;;;;;4.58;4.17;;;;;;;8.73;47.02;94792.34;1664211;84;21583;-56
2022/04/12 09:03:01;;;;;;;5.78;5.15;;;;;;;8.58;47.69;94789.84;1700616;82;21120;-56
2022/04/12 09:05:28;;;;;;;6.15;5.30;;;;;;;8.29;47.99;94789.80;1668278;84;22355;-57
2022/04/12 09:07:55;;;;;;;12.07;5.80;;;;;;;8.05;49.00;94789.05;1692440;83;21060;-57
2022/04/12 09:10:34;;;;;;;10.30;5.12;;;;;;;7.91;47.74;94791.52;1670559;82;21079;-58
2022/04/12 09:13:10;;;;;;;6.78;5.53;;;;;;;7.76;47.69;94784.08;1677156;84;21320;-53
2022/04/12 09:15:45;;;;;;;8.08;5.55;;;;;;;7.60;46.81;94781.34;1670202;84;21157;-57
2022/04/12 09:18:13;;;;;;;8.95;4.78;;;;;;;7.44;47.73;94776.62;1701424;82;21335;-56
2022/04/12 09:20:42;;;;;;;7.00;5.62;;;;;;;7.48;48.06;94770.47;1696455;82;21292;-55
2022/04/12 09:23:15;;;;;;;11.80;5.85;;;;;;;7.68;48.03;94777.25;1674762;82;21077;-56
2022/04/12 09:25:55;;;;;;;8.15;6.75;;;;;;;8.00;47.19;94773.89;1673853;82;21208;-56
2022/04/12 09:28:22;;;;;;;5.85;5.22;;;;;;;8.28;45.50;94766.33;1702569;82;22258;-55
2022/04/12 09:30:53;;;;;;;10.25;4.97;;;;;;;8.58;46.46;94767.91;1690009;83;21033;-55
2022/04/12 09:33:37;;;;;;;5.12;4.62;;;;;;;8.89;44.87;94761.52;1689182;82;21969;-57
2022/04/12 09:36:05;;;;;;;5.55;5.15;;;;;;;9.12;44.60;94761.23;1668497;84;21045;-53
2022/04/12 09:38:35;;;;;;;12.30;11.00;;;;;;;9.24;43.79;94767.34;1711872;82;20985;-56
2022/04/12 09:41:23;;;;;;;5.30;4.78;;;;;;;9.33;42.73;94758.63;1687830;83;21052;-57
2022/04/12 09:44:05;;;;;;;9.15;6.45;;;;;;;9.56;41.73;94754.17;1674997;85;21032;-58
2022/04/12 09:46:29;;;;;;;14.40;5.62;;;;;;;9.51;42.00;94752.58;1696037;82;21002;-59
2022/04/12 09:48:56;;;;;;;6.22;5.65;;;;;;;9.63;43.38;94753.19;1701517;82;21048;-56
2022/04/12 09:51:23;;;;;;;5.10;4.47;;;;;;;9.75;41.94;94752.39;1709565;83;21319;-56
2022/04/12 09:53:51;;;;;;;5.92;4.10;;;;;;;9.76;43.13;94745.71;1681597;83;20936;-55
2022/04/12 09:56:23;;;;;;;11.05;8.28;;;;;;;10.02;42.64;94737.60;1648767;82;21029;-54
2022/04/12 09:58:53;;;;;;;8.15;5.33;;;;;;;10.31;42.00;94741.70;1678306;83;20986;-55
2022/04/12 10:01:20;;;;;;;8.03;5.75;;;;;;;10.74;40.12;94732.88;1678187;83;21587;-55
2022/04/12 10:03:53;;;;;;;9.40;5.90;;;;;;;10.89;40.52;94728.99;1694652;82;21167;-54
2022/04/12 10:06:26;;;;;;;6.65;6.05;;;;;;;11.08;38.98;94730.04;1695113;82;21567;-56
2022/04/12 10:09:00;;;;;;;;;;;;;;;11.15;38.66;94733.89;1711622;83;21040;-56
2022/04/12 10:11:29;;;;;;;12.85;5.33;;;;;;;10.99;39.20;94736.10;1702582;82;20229;-56
2022/04/12 10:14:00;;;;;;;7.00;5.65;;;;;;;10.70;39.69;94738.96;1731841;82;21028;-57
2022/04/12 10:16:27;;;;;;;7.42;5.78;;;;;;;10.19;40.33;94748.61;1679533;84;21224;-56
2022/04/12 10:18:56;;;;;;;17.95;11.70;;;;;;;9.70;42.20;94751.58;1717334;83;21049;-57
2022/04/12 10:21:26;;;;;;;13.55;7.85;;;;;;;9.55;43.46;94749.11;1699976;82;21092;-57
2022/04/12 10:23:58;;;;;;;5.85;4.50;;;;;;;9.62;44.09;94746.91;1706531;82;22222;-56
2022/04/12 10:26:26;;;;;;;9.43;6.90;;;;;;;9.62;44.02;94749.66;1726565;82;21063;-55
2022/04/12 10:29:04;;;;;;;7.92;5.10;;;;;;;9.62;44.40;94748.28;1700885;83;22270;-54
2022/04/12 10:31:31;;;;;;;17.82;13.00;;;;;;;9.60;43.58;94747.20;1701572;84;20981;-54
2022/04/12 10:34:10;;;;;;;16.52;13.08;;;;;;;9.52;44.40;94743.13;1680886;84;21021;-57
2022/04/12 10:37:03;;;;;;;11.75;8.70;;;;;;;9.57;44.74;94743.34;1701683;82;21012;-57
2022/04/12 10:39:37;;;;;;;17.98;12.85;;;;;;;9.72;44.91;94760.14;1681024;84;21135;-57
2022/04/12 10:42:09;;;;;;;10.20;5.53;;;;;;;9.89;45.04;94755.47;1654160;85;21163;-56
2022/04/12 10:44:46;;;;;;;5.83;4.10;;;;;;;9.89;46.03;94745.06;1699884;82;21068;-57
2022/04/12 10:47:28;;;;;;;5.25;3.70;;;;;;;9.87;46.82;94748.27;1710334;82;21140;-56
2022/04/12 10:50:06;;;;;;;4.22;3.70;;;;;;;9.98;47.51;94739.68;1696169;83;21056;-52
2022/04/12 10:52:44;;;;;;;4.85;3.65;;;;;;;10.17;46.86;94740.80;1692872;82;20994;-57
2022/04/12 10:55:15;;;;;;;4.80;3.67;;;;;;;10.39;47.10;94731.22;1687371;82;21888;-56
2022/04/12 10:57:42;;;;;;;17.45;4.08;;;;;;;10.53;45.81;94729.36;1676480;83;20981;-57
2022/04/12 11:00:16;;;;;;;4.90;3.50;;;;;;;10.68;45.14;94713.88;1703435;82;21084;-54
2022/04/12 11:02:52;;;;;;;4.40;3.33;;;;;;;10.98;45.08;94722.19;1699835;83;21064;-55
2022/04/12 11:05:42;;;;;;;7.45;3.30;;;;;;;11.26;43.05;94712.83;1701733;82;21021;-57
2022/04/12 11:08:21;;;;;;;4.12;2.85;;;;;;;11.40;42.09;94717.20;1693358;83;21118;-60
2022/04/12 11:10:58;;;;;;;4.22;3.42;;;;;;;11.50;41.62;94714.62;1710723;81;21036;-59
2022/04/12 11:13:29;;;;;;;3.67;3.08;;;;;;;11.37;40.89;94712.58;1694392;81;21063;-60
2022/04/12 11:16:07;;;;;;;3.47;3.00;;;;;;;11.13;41.20;94723.19;1678089;83;21116;-60
2022/04/12 11:18:56;;;;;;;6.15;4.42;;;;;;;10.85;40.89;94722.27;1706112;82;21070;-61
2022/04/12 11:21:54;;;;;;;4.10;3.70;;;;;;;10.59;40.36;94724.80;1688352;82;21201;-59
2022/04/12 11:24:24;;;;;;;6.70;4.80;;;;;;;10.26;40.70;94733.23;1690777;82;21036;-56
2022/04/12 11:27:11;;;;;;;5.17;4.67;;;;;;;9.87;42.66;94736.50;1701563;82;21084;-55
2022/04/12 11:29:41;;;;;;;6.45;4.35;;;;;;;9.66;43.82;94740.69;1705889;82;21067;-57
2022/04/12 11:32:10;;;;;;;8.15;4.62;;;;;;;9.69;43.69;94737.68;1685233;82;21234;-61
2022/04/12 11:34:39;;;;;;;10.32;6.80;;;;;;;9.61;44.48;94733.64;1710923;82;22861;-60
2022/04/12 11:37:11;;;;;;;6.30;5.80;;;;;;;9.53;44.78;94737.80;1695742;82;21577;-60
2022/04/12 11:39:43;;;;;;;9.08;5.37;;;;;;;9.61;44.74;94735.01;1704986;82;21577;-58